Time;durP1;ratioP1;P1;durP2;ratioP2;P2;SDS_P1;SDS_P2;PMS_P1;PMS_P2;Temp;Humidity;BMP_temperature;BMP_pressure;BME280_temperature;BME280_humidity;BME280_pressure;Samples;Min_cycle;Max_cycle;Signal;HPM_P1;HPM_P2
2022/12/19 00:00:36;;;;;;;25.63;14.63;;;;;;;-145.23;100.00;58621.06;4996834;28;20246;-55
2022/12/19 00:03:02;;;;;;;24.83;15.77;;;;;;;-145.23;100.00;58621.06;5003083;28;20245;-53
2022/12/19 00:05:29;;;;;;;21.67;14.13;;;;;;;-145.23;100.00;58621.06;5005528;28;20236;-53
2022/12/19 00:07:56;;;;;;;22.43;14.97;;;;;;;-145.23;100.00;58621.06;5005370;28;20239;-54
2022/12/19 00:10:23;;;;;;;24.07;14.10;;;;;;;-145.23;100.00;58621.06;5002615;28;20243;-53
2022/12/19 00:12:49;;;;;;;21.67;12.43;;;;;;;-145.23;100.00;58621.06;5012070;28;20303;-53
2022/12/19 00:15:16;;;;;;;24.87;13.87;;;;;;;-145.23;100.00;58621.06;5012844;28;20294;-53
2022/12/19 00:17:44;;;;;;;23.83;13.70;;;;;;;-145.23;100.00;58621.06;5009223;28;20259;-54
2022/12/19 00:20:11;;;;;;;22.30;14.27;;;;;;;-145.23;100.00;58621.06;5013368;28;20286;-55
2022/12/19 00:22:38;;;;;;;19.93;12.40;;;;;;;-145.23;100.00;58621.06;5007396;28;20236;-53
2022/12/19 00:25:05;;;;;;;23.03;12.20;;;;;;;-145.23;100.00;58621.06;5006210;28;20240;-53
2022/12/19 00:27:34;;;;;;;21.70;13.07;;;;;;;-145.23;100.00;58621.06;5013405;28;20249;-53
2022/12/19 00:30:00;;;;;;;25.13;14.33;;;;;;;-145.23;100.00;58621.06;5012982;28;20232;-53
2022/12/19 00:32:27;;;;;;;18.63;12.40;;;;;;;-145.23;100.00;58621.06;5021175;28;20738;-54
2022/12/19 00:34:56;;;;;;;23.87;13.43;;;;;;;-145.23;100.00;58621.06;5027832;28;20910;-53
2022/12/19 00:37:22;;;;;;;21.00;13.23;;;;;;;-145.23;100.00;58621.06;5027759;28;20254;-53
2022/12/19 00:39:49;;;;;;;27.13;14.80;;;;;;;-145.23;100.00;58621.06;5028216;28;20313;-54
2022/12/19 00:42:16;;;;;;;22.13;12.80;;;;;;;-145.23;100.00;58621.06;5027694;28;20278;-54
2022/12/19 00:44:43;;;;;;;21.07;14.07;;;;;;;-145.23;100.00;58621.06;5027787;28;20404;-53
2022/12/19 00:47:10;;;;;;;21.33;11.87;;;;;;;-145.23;100.00;58621.06;5035886;28;20234;-54
2022/12/19 00:49:37;;;;;;;21.60;12.17;;;;;;;-145.23;100.00;58621.06;5028273;28;20759;-53
2022/12/19 00:52:05;;;;;;;19.87;12.23;;;;;;;-145.23;100.00;58621.06;5023913;28;20234;-55
2022/12/19 00:54:32;;;;;;;22.70;14.20;;;;;;;-145.23;100.00;58621.06;5025265;28;20267;-53
2022/12/19 00:57:02;;;;;;;24.40;13.30;;;;;;;-145.23;100.00;58621.06;5026060;28;20240;-54
2022/12/19 00:59:28;;;;;;;19.47;13.60;;;;;;;-145.23;100.00;58621.06;5023871;28;20319;-53
2022/12/19 01:01:55;;;;;;;23.13;13.13;;;;;;;-145.23;100.00;58621.06;5019142;28;20270;-53
2022/12/19 01:04:21;;;;;;;20.00;11.63;;;;;;;-145.23;100.00;58621.06;5018170;28;20242;-53
2022/12/19 01:06:48;;;;;;;20.83;13.50;;;;;;;-145.23;100.00;58621.06;5037522;28;20780;-54
2022/12/19 01:09:16;;;;;;;20.73;12.60;;;;;;;-145.23;100.00;58621.06;5038461;28;20361;-53
2022/12/19 01:14:27;;;;;;;22.30;12.30;;;;;;;-145.23;100.00;58621.06;5040536;28;20241;-53
2022/12/19 01:16:53;;;;;;;19.97;13.37;;;;;;;-145.23;100.00;58621.06;5037785;28;20322;-53
2022/12/19 01:19:20;;;;;;;19.00;12.37;;;;;;;-145.23;100.00;58621.06;5033338;28;20234;-53
2022/12/19 01:21:47;;;;;;;21.30;12.90;;;;;;;-145.23;100.00;58621.06;5040169;28;20234;-53
2022/12/19 01:24:14;;;;;;;18.23;11.40;;;;;;;-145.23;100.00;58621.06;5040781;28;20240;-53
2022/12/19 01:26:41;;;;;;;18.53;12.40;;;;;;;-145.23;100.00;58621.06;5031769;28;20234;-54
2022/12/19 01:29:08;;;;;;;21.23;13.17;;;;;;;-145.23;100.00;58621.06;5027214;28;20326;-53
2022/12/19 01:31:34;;;;;;;17.90;11.40;;;;;;;-145.23;100.00;58621.06;5027737;28;20237;-53
2022/12/19 01:34:01;;;;;;;22.97;12.47;;;;;;;-145.23;100.00;58621.06;5027856;28;20231;-54
2022/12/19 01:36:28;;;;;;;20.33;11.40;;;;;;;-145.23;100.00;58621.06;5027668;28;20238;-53
2022/12/19 01:38:55;;;;;;;19.97;12.07;;;;;;;-145.23;100.00;58621.06;5028837;28;20227;-54
2022/12/19 01:41:22;;;;;;;19.30;11.90;;;;;;;-145.23;100.00;58621.06;5028398;28;20231;-54
2022/12/19 01:43:58;;;;;;;15.33;11.67;;;;;;;-145.23;100.00;58621.06;5032251;28;20326;-54
2022/12/19 01:46:27;;;;;;;18.13;12.83;;;;;;;-145.23;100.00;58621.06;5038604;28;20234;-53
2022/12/19 01:48:54;;;;;;;20.93;12.07;;;;;;;-145.23;100.00;58621.06;5032300;28;20329;-53
2022/12/19 01:51:22;;;;;;;18.00;12.37;;;;;;;-145.23;100.00;58621.06;5033452;28;20258;-53
2022/12/19 01:53:52;;;;;;;19.63;10.63;;;;;;;-145.23;100.00;58621.06;5038989;28;20248;-53
2022/12/19 01:56:20;;;;;;;20.67;11.97;;;;;;;-145.23;100.00;58621.06;5035448;28;20234;-54
2022/12/19 01:58:47;;;;;;;18.17;11.77;;;;;;;-145.23;100.00;58621.06;5046792;28;20617;-53
2022/12/19 02:01:17;;;;;;;18.03;10.80;;;;;;;-145.23;100.00;58621.06;5039933;28;20317;-54
2022/12/19 02:03:44;;;;;;;15.90;11.37;;;;;;;-145.23;100.00;58621.06;5030448;28;20237;-55
2022/12/19 02:06:14;;;;;;;22.63;11.77;;;;;;;-145.23;100.00;58621.06;5034165;28;20329;-53
2022/12/19 02:08:41;;;;;;;19.33;11.07;;;;;;;-145.23;100.00;58621.06;5036569;28;20235;-52
2022/12/19 02:11:08;;;;;;;23.00;13.40;;;;;;;-145.23;100.00;58621.06;5029298;28;20330;-53
2022/12/19 02:13:34;;;;;;;18.13;12.23;;;;;;;-145.23;100.00;58621.06;5032009;28;20618;-55
2022/12/19 02:16:08;;;;;;;16.27;10.80;;;;;;;-145.23;100.00;58621.06;5050606;28;20250;-53
2022/12/19 02:18:43;;;;;;;20.23;12.03;;;;;;;-145.23;100.00;58621.06;5034446;28;20234;-54
2022/12/19 02:21:18;;;;;;;18.03;12.03;;;;;;;-145.23;100.00;58621.06;5035456;28;20415;-53
2022/12/19 02:24:31;;;;;;;18.87;11.27;;;;;;;-145.23;100.00;58621.06;5033330;28;20278;-53
2022/12/19 02:27:02;;;;;;;22.73;13.30;;;;;;;-145.23;100.00;58621.06;5015979;28;20238;-54
2022/12/19 02:29:45;;;;;;;17.47;12.53;;;;;;;-145.23;100.00;58621.06;5006377;28;20233;-53
2022/12/19 02:32:18;;;;;;;20.97;12.17;;;;;;;-145.23;100.00;58621.06;5004740;28;20817;-54
2022/12/19 02:34:50;;;;;;;22.47;12.53;;;;;;;-145.23;100.00;58621.06;5007997;28;20231;-53
2022/12/19 02:37:21;;;;;;;19.37;13.27;;;;;;;-145.23;100.00;58621.06;5008701;28;20590;-53
2022/12/19 02:39:51;;;;;;;21.33;12.20;;;;;;;-145.23;100.00;58621.06;5006978;28;20232;-53
2022/12/19 02:42:22;;;;;;;22.87;11.73;;;;;;;-145.23;100.00;58621.06;5007216;28;20235;-53
2022/12/19 02:44:51;;;;;;;18.93;11.33;;;;;;;-145.23;100.00;58621.06;5002938;28;20243;-53
2022/12/19 02:47:20;;;;;;;22.93;12.30;;;;;;;-145.23;100.00;58621.06;5014361;28;20235;-53
2022/12/19 02:49:46;;;;;;;23.77;12.57;;;;;;;-145.23;100.00;58621.06;5007103;28;20239;-54
2022/12/19 02:52:44;;;;;;;22.23;12.53;;;;;;;-145.23;100.00;58621.06;5010101;28;20240;-53
2022/12/19 02:55:14;;;;;;;20.20;13.37;;;;;;;-145.23;100.00;58621.06;5024760;28;20724;-54
2022/12/19 02:57:51;;;;;;;23.67;12.00;;;;;;;-145.23;100.00;58621.06;5023926;28;20240;-53
2022/12/19 03:00:19;;;;;;;26.67;12.87;;;;;;;-145.23;100.00;58621.06;5011066;28;20256;-55
2022/12/19 03:02:52;;;;;;;23.07;13.13;;;;;;;-145.23;100.00;58621.06;5005655;28;20241;-55
2022/12/19 03:05:25;;;;;;;21.23;12.67;;;;;;;-145.23;100.00;58621.06;5008003;28;20239;-54
2022/12/19 03:07:57;;;;;;;19.97;11.90;;;;;;;-145.23;100.00;58621.06;5007151;28;20236;-55
2022/12/19 03:10:30;;;;;;;20.97;12.93;;;;;;;-145.23;100.00;58621.06;5007080;28;20327;-53
2022/12/19 03:13:01;;;;;;;21.03;14.33;;;;;;;-145.23;100.00;58621.06;4999218;28;20246;-53
2022/12/19 03:15:27;;;;;;;20.20;12.17;;;;;;;-145.23;100.00;58621.06;5006786;28;20756;-54
2022/12/19 03:17:56;;;;;;;18.77;12.40;;;;;;;-145.23;100.00;58621.06;5005803;28;20698;-53
2022/12/19 03:20:26;;;;;;;21.60;13.43;;;;;;;-145.23;100.00;58621.06;5006377;28;20262;-54
2022/12/19 03:22:54;;;;;;;25.40;14.63;;;;;;;-145.23;100.00;58621.06;5010069;28;20267;-53
2022/12/19 03:25:22;;;;;;;22.50;13.43;;;;;;;-145.23;100.00;58621.06;5009552;28;20238;-53
2022/12/19 03:27:50;;;;;;;23.00;15.03;;;;;;;-145.23;100.00;58621.06;5009211;28;20248;-54
2022/12/19 03:30:16;;;;;;;20.87;13.60;;;;;;;-145.23;100.00;58621.06;5011742;28;20243;-57
2022/12/19 03:32:44;;;;;;;26.70;14.53;;;;;;;-145.23;100.00;58621.06;5005096;28;20247;-53
2022/12/19 03:35:14;;;;;;;18.67;12.63;;;;;;;-145.23;100.00;58621.06;5006099;28;20245;-53
2022/12/19 03:37:42;;;;;;;24.40;13.93;;;;;;;-145.23;100.00;58621.06;5012000;28;20221;-54
2022/12/19 03:40:12;;;;;;;22.97;13.50;;;;;;;-145.23;100.00;58621.06;5004293;28;20232;-54
2022/12/19 03:45:31;;;;;;;21.27;14.20;;;;;;;-145.23;100.00;58621.06;5005063;28;20255;-54
2022/12/19 03:47:59;;;;;;;21.20;13.03;;;;;;;-145.23;100.00;58621.06;5005927;28;20266;-55
2022/12/19 03:50:28;;;;;;;20.43;13.73;;;;;;;-145.23;100.00;58621.06;5004753;28;20235;-54
2022/12/19 03:53:02;;;;;;;23.57;13.67;;;;;;;-145.23;100.00;58621.06;5014938;28;20236;-53
2022/12/19 03:55:33;;;;;;;24.27;14.47;;;;;;;-145.23;100.00;58621.06;5008711;28;21412;-53
2022/12/19 03:58:06;;;;;;;23.60;13.57;;;;;;;-145.23;100.00;58621.06;5028812;28;20238;-54
2022/12/19 04:00:35;;;;;;;20.73;13.93;;;;;;;-145.23;100.00;58621.06;5015096;28;20237;-54
2022/12/19 04:03:02;;;;;;;24.73;15.33;;;;;;;-145.23;100.00;58621.06;5023721;28;20245;-55
2022/12/19 04:05:29;;;;;;;21.63;14.47;;;;;;;-145.23;100.00;58621.06;5026317;28;20241;-54
2022/12/19 04:07:58;;;;;;;22.03;13.00;;;;;;;-145.23;100.00;58621.06;5023016;28;20245;-53
2022/12/19 04:10:26;;;;;;;26.63;14.70;;;;;;;-145.23;100.00;58621.06;5017583;28;20243;-52
2022/12/19 04:12:58;;;;;;;23.57;13.90;;;;;;;-145.23;100.00;58621.06;5008617;28;20326;-54
2022/12/19 04:15:33;;;;;;;20.47;14.20;;;;;;;-145.23;100.00;58621.06;5003949;28;20242;-54
2022/12/19 04:18:00;;;;;;;27.03;14.30;;;;;;;-145.23;100.00;58621.06;5002952;28;20354;-53
2022/12/19 04:20:30;;;;;;;26.73;15.87;;;;;;;-145.23;100.00;58621.06;5006198;28;20236;-54
2022/12/19 04:23:01;;;;;;;26.97;16.40;;;;;;;-145.23;100.00;58621.06;5010792;28;20293;-55
2022/12/19 04:25:31;;;;;;;27.23;14.33;;;;;;;-145.23;100.00;58621.06;5006360;28;20594;-53
2022/12/19 04:28:02;;;;;;;26.03;15.37;;;;;;;-145.23;100.00;58621.06;5011677;28;20264;-54
2022/12/19 04:30:28;;;;;;;25.43;15.50;;;;;;;-145.23;100.00;58621.06;5005517;28;20238;-55
2022/12/19 04:32:55;;;;;;;26.17;15.77;;;;;;;-145.23;100.00;58621.06;5005493;28;20625;-53
2022/12/19 04:35:22;;;;;;;23.33;14.00;;;;;;;-145.23;100.00;58621.06;5004155;28;20236;-55
2022/12/19 04:37:48;;;;;;;24.07;15.30;;;;;;;-145.23;100.00;58621.06;5006236;28;20331;-54
2022/12/19 04:40:15;;;;;;;27.60;16.40;;;;;;;-145.23;100.00;58621.06;5004862;28;20327;-54
2022/12/19 04:42:42;;;;;;;26.83;15.77;;;;;;;-145.23;100.00;58621.06;5005701;28;20244;-54
2022/12/19 04:45:11;;;;;;;22.47;14.60;;;;;;;-145.23;100.00;58621.06;5002509;28;20239;-54
2022/12/19 04:47:37;;;;;;;24.27;14.67;;;;;;;-145.23;100.00;58621.06;5012549;28;20245;-53
2022/12/19 04:50:04;;;;;;;24.53;14.67;;;;;;;-145.23;100.00;58621.06;4994360;28;20236;-53
2022/12/19 04:52:31;;;;;;;25.10;15.60;;;;;;;-145.23;100.00;58621.06;5015671;28;20237;-53
2022/12/19 04:54:57;;;;;;;23.03;14.17;;;;;;;-145.23;100.00;58621.06;4999656;28;20227;-54
2022/12/19 04:57:24;;;;;;;24.53;16.07;;;;;;;-145.23;100.00;58621.06;5005155;28;20228;-54
2022/12/19 04:59:51;;;;;;;31.27;16.93;;;;;;;-145.23;100.00;58621.06;5004739;28;20931;-54
2022/12/19 05:02:19;;;;;;;24.17;16.30;;;;;;;-145.23;100.00;58621.06;5006194;28;20250;-53
2022/12/19 05:04:45;;;;;;;22.20;14.63;;;;;;;-145.23;100.00;58621.06;5005566;28;20246;-54
2022/12/19 05:07:13;;;;;;;24.80;15.40;;;;;;;-145.23;100.00;58621.06;5005774;28;20232;-53
2022/12/19 05:09:39;;;;;;;21.77;14.57;;;;;;;-145.23;100.00;58621.06;5005008;28;20231;-53
2022/12/19 05:12:06;;;;;;;26.10;15.80;;;;;;;-145.23;100.00;58621.06;5005648;28;20238;-59
2022/12/19 05:14:33;;;;;;;25.23;17.77;;;;;;;-145.23;100.00;58621.06;5004856;28;20238;-53
2022/12/19 05:17:00;;;;;;;27.10;16.33;;;;;;;-145.23;100.00;58621.06;5006972;28;20231;-53
2022/12/19 05:19:28;;;;;;;26.80;16.53;;;;;;;-145.23;100.00;58621.06;5006018;28;20714;-53
2022/12/19 05:21:55;;;;;;;23.93;15.20;;;;;;;-145.23;100.00;58621.06;5008311;28;20235;-53
2022/12/19 05:24:21;;;;;;;24.57;14.80;;;;;;;-145.23;100.00;58621.06;5009406;28;20702;-53
2022/12/19 05:26:48;;;;;;;26.43;16.07;;;;;;;-145.23;100.00;58621.06;5012332;28;20239;-54
2022/12/19 05:29:16;;;;;;;26.07;16.23;;;;;;;-145.23;100.00;58621.06;5010632;28;20293;-53
2022/12/19 05:31:42;;;;;;;27.50;15.23;;;;;;;-145.23;100.00;58621.06;5013510;28;20287;-53
2022/12/19 05:34:09;;;;;;;28.93;15.90;;;;;;;-145.23;100.00;58621.06;5007353;28;20440;-54
2022/12/19 05:36:37;;;;;;;25.77;15.53;;;;;;;-145.23;100.00;58621.06;5013558;28;20322;-53
2022/12/19 05:39:04;;;;;;;27.93;15.57;;;;;;;-145.23;100.00;58621.06;5008638;28;20711;-53
2022/12/19 05:41:30;;;;;;;29.00;15.43;;;;;;;-145.23;100.00;58621.06;5013100;28;20232;-53
2022/12/19 05:43:57;;;;;;;26.97;15.73;;;;;;;-145.23;100.00;58621.06;4999246;28;20250;-53
2022/12/19 05:46:24;;;;;;;26.93;15.33;;;;;;;-145.23;100.00;58621.06;5007899;28;20735;-53
2022/12/19 05:48:51;;;;;;;25.77;15.50;;;;;;;-145.23;100.00;58621.06;5013199;28;20769;-54
2022/12/19 05:51:18;;;;;;;26.07;16.00;;;;;;;-145.23;100.00;58621.06;5008766;28;20709;-53
2022/12/19 05:53:46;;;;;;;25.13;15.40;;;;;;;-145.23;100.00;58621.06;5008900;28;20675;-53
2022/12/19 05:56:14;;;;;;;23.00;15.87;;;;;;;-145.23;100.00;58621.06;5024945;28;20730;-54
2022/12/19 05:58:41;;;;;;;24.03;15.87;;;;;;;-145.23;100.00;58621.06;5028522;28;20241;-53
2022/12/19 06:01:10;;;;;;;28.87;16.93;;;;;;;-145.23;100.00;58621.06;5017696;28;20716;-53
2022/12/19 06:03:36;;;;;;;29.07;16.97;;;;;;;-145.23;100.00;58621.06;5020255;28;20310;-55
2022/12/19 06:06:03;;;;;;;24.63;14.20;;;;;;;-145.23;100.00;58621.06;5008011;28;20240;-52
2022/12/19 06:08:30;;;;;;;22.70;15.70;;;;;;;-145.23;100.00;58621.06;5015313;28;20247;-53
2022/12/19 06:11:00;;;;;;;22.23;15.27;;;;;;;-145.23;100.00;58621.06;5008466;28;20247;-53
2022/12/19 06:13:26;;;;;;;26.37;15.67;;;;;;;-145.23;100.00;58621.06;5011967;28;20250;-54
2022/12/19 06:15:57;;;;;;;27.83;16.37;;;;;;;-145.23;100.00;58621.06;5007880;28;20910;-53
2022/12/19 06:18:24;;;;;;;23.57;14.77;;;;;;;-145.23;100.00;58621.06;5007710;28;20234;-54
2022/12/19 06:20:56;;;;;;;26.80;14.30;;;;;;;-145.23;100.00;58621.06;5006529;28;20242;-54
2022/12/19 06:23:23;;;;;;;27.97;15.30;;;;;;;-145.23;100.00;58621.06;5007034;28;20913;-52
2022/12/19 06:25:49;;;;;;;24.83;14.87;;;;;;;-145.23;100.00;58621.06;5009380;28;20646;-53
2022/12/19 06:28:17;;;;;;;24.73;13.77;;;;;;;-145.23;100.00;58621.06;5010890;28;20953;-53
2022/12/19 06:30:44;;;;;;;23.97;15.70;;;;;;;-145.23;100.00;58621.06;5006547;28;20232;-53
2022/12/19 06:33:10;;;;;;;24.37;15.43;;;;;;;-145.23;100.00;58621.06;5012515;28;20239;-52
2022/12/19 06:35:37;;;;;;;25.37;15.93;;;;;;;-145.23;100.00;58621.06;5006458;28;20240;-54
2022/12/19 06:38:03;;;;;;;22.77;14.23;;;;;;;-145.23;100.00;58621.06;5006368;28;20229;-55
2022/12/19 06:43:14;;;;;;;23.73;14.27;;;;;;;-145.23;100.00;58621.06;5015931;28;20337;-53
2022/12/19 06:45:42;;;;;;;21.07;14.47;;;;;;;-145.23;100.00;58621.06;5015071;28;20262;-54
2022/12/19 06:48:08;;;;;;;22.30;12.90;;;;;;;-145.23;100.00;58621.06;5003708;28;20722;-54
2022/12/19 06:50:35;;;;;;;24.47;14.63;;;;;;;-145.23;100.00;58621.06;5012945;28;20249;-54
2022/12/19 06:53:05;;;;;;;25.03;16.47;;;;;;;-145.23;100.00;58621.06;5007753;28;20239;-54
2022/12/19 06:55:31;;;;;;;24.10;13.57;;;;;;;-145.23;100.00;58621.06;5007569;28;20247;-55
2022/12/19 06:57:58;;;;;;;20.53;14.17;;;;;;;-145.23;100.00;58621.06;5008132;28;20240;-53
2022/12/19 07:00:24;;;;;;;24.73;14.87;;;;;;;-145.23;100.00;58621.06;5016702;28;20231;-54
2022/12/19 07:02:52;;;;;;;27.07;14.00;;;;;;;-145.23;100.00;58621.06;5014886;28;20243;-55
2022/12/19 07:05:19;;;;;;;20.33;13.63;;;;;;;-145.23;100.00;58621.06;5016714;28;20322;-53
2022/12/19 07:07:46;;;;;;;28.93;15.63;;;;;;;-145.23;100.00;58621.06;5018115;28;20323;-54
2022/12/19 07:10:12;;;;;;;24.23;14.50;;;;;;;-145.23;100.00;58621.06;5008042;28;20248;-55
2022/12/19 07:12:39;;;;;;;25.00;15.67;;;;;;;-145.23;100.00;58621.06;5012754;28;20236;-54
2022/12/19 07:15:07;;;;;;;20.07;14.67;;;;;;;-145.23;100.00;58621.06;5007293;28;20374;-55
2022/12/19 07:17:36;;;;;;;23.40;14.67;;;;;;;-145.23;100.00;58621.06;5014241;28;20706;-53
2022/12/19 07:20:06;;;;;;;22.57;13.87;;;;;;;-145.23;100.00;58621.06;5031592;28;20281;-53
2022/12/19 07:22:34;;;;;;;22.77;13.67;;;;;;;-145.23;100.00;58621.06;5031840;28;20752;-54
2022/12/19 07:25:02;;;;;;;26.43;13.60;;;;;;;-145.23;100.00;58621.06;5024691;28;20305;-53
2022/12/19 07:27:29;;;;;;;22.30;13.80;;;;;;;-145.23;100.00;58621.06;5025654;28;20311;-53
2022/12/19 07:29:56;;;;;;;24.37;15.53;;;;;;;-145.23;100.00;58621.06;5022781;28;20788;-53
2022/12/19 07:32:22;;;;;;;24.83;14.53;;;;;;;-145.23;100.00;58621.06;5031144;28;20950;-53
2022/12/19 07:34:56;;;;;;;21.17;14.17;;;;;;;-145.23;100.00;58621.06;5024650;28;20240;-53
2022/12/19 07:37:24;;;;;;;21.10;14.23;;;;;;;-145.23;100.00;58621.06;5020744;28;20239;-54
2022/12/19 07:39:51;;;;;;;23.60;13.57;;;;;;;-145.23;100.00;58621.06;5025113;28;20235;-54
2022/12/19 07:42:18;;;;;;;25.57;14.33;;;;;;;-145.23;100.00;58621.06;5022706;28;20254;-54
2022/12/19 07:44:45;;;;;;;19.33;12.70;;;;;;;-145.23;100.00;58621.06;5023704;28;20223;-54
2022/12/19 07:47:11;;;;;;;23.13;14.50;;;;;;;-145.23;100.00;58621.06;5022834;28;20235;-54
2022/12/19 07:49:38;;;;;;;24.63;14.53;;;;;;;-145.23;100.00;58621.06;5026742;28;20243;-53
2022/12/19 07:52:04;;;;;;;19.77;12.60;;;;;;;-145.23;100.00;58621.06;5002745;28;20699;-54
2022/12/19 07:54:33;;;;;;;20.27;12.67;;;;;;;-145.23;100.00;58621.06;5004084;28;20326;-54
2022/12/19 07:57:01;;;;;;;20.73;12.40;;;;;;;-145.23;100.00;58621.06;5006031;28;20271;-54
2022/12/19 07:59:27;;;;;;;21.53;14.53;;;;;;;-145.23;100.00;58621.06;5006655;28;20255;-54
2022/12/19 08:01:54;;;;;;;21.57;12.97;;;;;;;-145.23;100.00;58621.06;5006174;28;20252;-53
2022/12/19 08:04:20;;;;;;;19.50;12.03;;;;;;;-145.23;100.00;58621.06;5006588;28;20242;-54
2022/12/19 08:06:47;;;;;;;24.37;15.83;;;;;;;-145.23;100.00;58621.06;5010523;28;20239;-54
2022/12/19 08:09:14;;;;;;;20.33;13.10;;;;;;;-145.23;100.00;58621.06;5017867;28;20246;-54
2022/12/19 08:11:42;;;;;;;24.90;14.53;;;;;;;-145.23;100.00;58621.06;5028333;28;20232;-54
2022/12/19 08:14:08;;;;;;;22.53;13.33;;;;;;;-145.23;100.00;58621.06;5009806;28;20267;-58
2022/12/19 08:16:36;;;;;;;20.90;12.63;;;;;;;-145.23;100.00;58621.06;5008708;28;20232;-54
2022/12/19 08:19:02;;;;;;;25.60;14.43;;;;;;;-145.23;100.00;58621.06;5008302;28;20239;-54
2022/12/19 08:21:29;;;;;;;19.83;12.93;;;;;;;-145.23;100.00;58621.06;5015908;28;20238;-54
2022/12/19 08:23:56;;;;;;;20.30;12.87;;;;;;;-145.23;100.00;58621.06;5006154;28;20314;-54
2022/12/19 08:26:24;;;;;;;24.97;13.27;;;;;;;-145.23;100.00;58621.06;5006500;28;20334;-54
2022/12/19 08:28:53;;;;;;;22.37;11.90;;;;;;;-145.23;100.00;58621.06;5006529;28;20250;-54
2022/12/19 08:31:20;;;;;;;18.37;12.17;;;;;;;-145.23;100.00;58621.06;5018981;28;20261;-55
2022/12/19 08:33:47;;;;;;;21.00;13.10;;;;;;;-145.23;100.00;58621.06;5021411;28;20807;-54
2022/12/19 08:36:15;;;;;;;27.03;13.97;;;;;;;-145.23;100.00;58621.06;5007770;28;20745;-56
2022/12/19 08:38:41;;;;;;;23.80;14.10;;;;;;;-145.23;100.00;58621.06;5024248;28;20326;-55
2022/12/19 08:41:09;;;;;;;23.73;13.17;;;;;;;-145.23;100.00;58621.06;5014072;28;20334;-54
2022/12/19 08:43:36;;;;;;;19.80;12.00;;;;;;;-145.23;100.00;58621.06;5020136;28;20239;-53
2022/12/19 08:46:05;;;;;;;21.77;12.13;;;;;;;-145.23;100.00;58621.06;5029652;28;20242;-54
2022/12/19 08:48:32;;;;;;;20.40;12.63;;;;;;;-145.23;100.00;58621.06;5020887;28;20315;-54
2022/12/19 08:51:01;;;;;;;24.03;13.87;;;;;;;-145.23;100.00;58621.06;5006588;28;20325;-53
2022/12/19 08:53:29;;;;;;;25.77;15.00;;;;;;;-145.23;100.00;58621.06;5021646;28;20243;-53
2022/12/19 08:55:56;;;;;;;26.40;12.83;;;;;;;-145.23;100.00;58621.06;5034794;28;20236;-54
2022/12/19 08:58:22;;;;;;;20.80;12.37;;;;;;;-145.23;100.00;58621.06;5028742;28;20333;-53
2022/12/19 09:00:49;;;;;;;23.03;13.67;;;;;;;-145.23;100.00;58621.06;5029250;28;20616;-53
2022/12/19 09:03:17;;;;;;;21.47;13.33;;;;;;;-145.23;100.00;58621.06;5029375;28;20326;-53
2022/12/19 09:05:43;;;;;;;20.60;12.67;;;;;;;-145.23;100.00;58621.06;5028824;28;20247;-53
2022/12/19 09:08:10;;;;;;;27.10;14.37;;;;;;;-145.23;100.00;58621.06;5029578;28;20239;-54
2022/12/19 09:10:37;;;;;;;22.33;13.63;;;;;;;-145.23;100.00;58621.06;5029617;28;20247;-53
2022/12/19 09:13:04;;;;;;;21.70;12.77;;;;;;;-145.23;100.00;58621.06;5033622;28;20262;-53
2022/12/19 09:15:31;;;;;;;23.70;12.60;;;;;;;-145.23;100.00;58621.06;5049456;28;20606;-53
2022/12/19 09:17:57;;;;;;;21.00;12.93;;;;;;;-145.23;100.00;58621.06;5033831;28;20659;-54
2022/12/19 09:20:25;;;;;;;20.07;13.43;;;;;;;-145.23;100.00;58621.06;5041257;28;20230;-54
2022/12/19 09:22:52;;;;;;;23.60;13.57;;;;;;;-145.23;100.00;58621.06;5039660;28;20402;-53
2022/12/19 09:25:18;;;;;;;24.33;13.87;;;;;;;-145.23;100.00;58621.06;5035318;28;20242;-53
2022/12/19 09:27:45;;;;;;;22.10;12.90;;;;;;;-145.23;100.00;58621.06;5038264;28;20239;-55
2022/12/19 09:30:13;;;;;;;23.93;12.20;;;;;;;-145.23;100.00;58621.06;5033994;28;20235;-55
2022/12/19 09:32:40;;;;;;;21.37;13.03;;;;;;;-145.23;100.00;58621.06;5037495;28;20238;-55
2022/12/19 09:35:07;;;;;;;23.03;12.87;;;;;;;-145.23;100.00;58621.06;5043119;28;20236;-54
2022/12/19 09:37:35;;;;;;;23.37;14.10;;;;;;;-145.23;100.00;58621.06;5032834;28;20239;-53
2022/12/19 09:40:02;;;;;;;20.87;12.83;;;;;;;-145.23;100.00;58621.06;5028618;28;20232;-54
2022/12/19 09:42:42;;;;;;;19.90;12.47;;;;;;;-145.23;100.00;58621.06;5025830;28;20247;-55
2022/12/19 09:45:23;;;;;;;25.17;14.47;;;;;;;-145.23;100.00;58621.06;5033977;28;20667;-53
2022/12/19 09:47:50;;;;;;;21.30;12.87;;;;;;;-145.23;100.00;58621.06;5027930;28;20306;-53
2022/12/19 09:50:26;;;;;;;22.80;13.87;;;;;;;-145.23;100.00;58621.06;5029552;28;20234;-55
2022/12/19 09:52:57;;;;;;;23.83;13.93;;;;;;;-145.23;100.00;58621.06;5031383;28;20239;-53
2022/12/19 09:55:28;;;;;;;20.10;13.07;;;;;;;-145.23;100.00;58621.06;5028143;28;20238;-53
2022/12/19 09:57:59;;;;;;;26.10;13.53;;;;;;;-145.23;100.00;58621.06;5025514;28;20314;-55
2022/12/19 10:00:31;;;;;;;19.40;12.80;;;;;;;-145.23;100.00;58621.06;5026659;28;20239;-54
2022/12/19 10:03:00;;;;;;;20.77;13.17;;;;;;;-145.23;100.00;58621.06;5027263;28;20860;-54
2022/12/19 10:05:33;;;;;;;26.30;14.00;;;;;;;-145.23;100.00;58621.06;5027488;28;20241;-54
2022/12/19 10:08:01;;;;;;;21.10;12.07;;;;;;;-145.23;100.00;58621.06;5023215;28;20239;-53
2022/12/19 10:10:33;;;;;;;20.00;11.77;;;;;;;-145.23;100.00;58621.06;5026528;28;20244;-54
2022/12/19 10:13:11;;;;;;;22.57;13.50;;;;;;;-145.23;100.00;58621.06;5005986;28;20284;-53
2022/12/19 10:15:43;;;;;;;16.13;11.63;;;;;;;-145.23;100.00;58621.06;5026304;28;20224;-54
2022/12/19 10:18:21;;;;;;;18.70;13.03;;;;;;;-145.23;100.00;58621.06;5003209;28;20229;-55
2022/12/19 10:20:53;;;;;;;24.67;13.27;;;;;;;-145.23;100.00;58621.06;5010757;28;20252;-54
2022/12/19 10:23:45;;;;;;;18.63;12.10;;;;;;;-145.23;100.00;58621.06;5009354;28;20248;-53
2022/12/19 10:26:17;;;;;;;20.93;12.87;;;;;;;-145.23;100.00;58621.06;4995405;28;20942;-54
2022/12/19 10:28:55;;;;;;;22.63;13.33;;;;;;;-145.23;100.00;58621.06;5001408;28;20283;-54
2022/12/19 10:31:23;;;;;;;25.57;14.63;;;;;;;-145.23;100.00;58621.06;5013949;28;20243;-54
2022/12/19 10:33:55;;;;;;;22.67;13.00;;;;;;;-145.23;100.00;58621.06;5010326;28;20257;-53
2022/12/19 10:36:24;;;;;;;22.13;13.33;;;;;;;-145.23;100.00;58621.06;5012309;28;20621;-53
2022/12/19 10:38:57;;;;;;;20.83;11.90;;;;;;;-145.23;100.00;58621.06;5006137;28;20259;-54
2022/12/19 10:41:26;;;;;;;21.73;12.97;;;;;;;-145.23;100.00;58621.06;4999563;28;20270;-54
2022/12/19 10:43:58;;;;;;;19.00;11.67;;;;;;;-145.23;100.00;58621.06;5006917;28;20319;-53
2022/12/19 10:46:36;;;;;;;19.33;12.00;;;;;;;-145.23;100.00;58621.06;5007201;28;20655;-53
2022/12/19 10:49:12;;;;;;;21.57;13.23;;;;;;;-145.23;100.00;58621.06;5000476;28;20239;-53
2022/12/19 10:51:38;;;;;;;21.27;13.77;;;;;;;-145.23;100.00;58621.06;5006369;28;20605;-54
2022/12/19 10:54:06;;;;;;;24.07;13.70;;;;;;;-145.23;100.00;58621.06;5016714;28;20234;-54
2022/12/19 10:56:33;;;;;;;23.97;14.63;;;;;;;-145.23;100.00;58621.06;5019838;28;20319;-53
2022/12/19 10:59:00;;;;;;;20.83;12.57;;;;;;;-145.23;100.00;58621.06;5019923;28;22954;-53
2022/12/19 11:01:28;;;;;;;19.47;12.33;;;;;;;-145.23;100.00;58621.06;5010955;28;20246;-54
2022/12/19 11:04:14;;;;;;;21.37;12.57;;;;;;;-145.23;100.00;58621.06;5018108;28;20616;-54
2022/12/19 11:06:48;;;;;;;23.73;13.40;;;;;;;-145.23;100.00;58621.06;5012731;28;20227;-54
2022/12/19 11:09:26;;;;;;;19.73;11.47;;;;;;;-145.23;100.00;58621.06;5025058;28;20234;-58